sensor_id;sensor_type;location;lat;lon;timestamp;temperature;humidity
16172;DHT22;8192;53.596;10.166;2023-07-20T00:01:46;12.70;99.90
16172;DHT22;8192;53.596;10.166;2023-07-20T00:04:13;12.70;99.90
16172;DHT22;8192;53.596;10.166;2023-07-20T00:06:40;12.80;99.90
16172;DHT22;8192;53.596;10.166;2023-07-20T00:09:07;12.80;99.90
16172;DHT22;8192;53.596;10.166;2023-07-20T00:11:37;12.80;99.90
16172;DHT22;8192;53.596;10.166;2023-07-20T00:14:04;12.80;99.90
16172;DHT22;8192;53.596;10.166;2023-07-20T00:16:33;12.90;99.90
16172;DHT22;8192;53.596;10.166;2023-07-20T00:19:00;12.90;99.90
16172;DHT22;8192;53.596;10.166;2023-07-20T00:21:27;13.00;99.90
16172;DHT22;8192;53.596;10.166;2023-07-20T00:23:54;13.00;99.90
16172;DHT22;8192;53.596;10.166;2023-07-20T00:26:21;13.00;99.90
16172;DHT22;8192;53.596;10.166;2023-07-20T00:28:50;13.10;99.90
16172;DHT22;8192;53.596;10.166;2023-07-20T00:31:17;13.20;99.90
16172;DHT22;8192;53.596;10.166;2023-07-20T00:33:45;13.30;99.90
16172;DHT22;8192;53.596;10.166;2023-07-20T00:36:12;13.30;99.90
16172;DHT22;8192;53.596;10.166;2023-07-20T00:38:39;13.40;99.90
16172;DHT22;8192;53.596;10.166;2023-07-20T00:41:06;13.60;99.90
16172;DHT22;8192;53.596;10.166;2023-07-20T00:43:33;13.60;99.90
16172;DHT22;8192;53.596;10.166;2023-07-20T00:46:00;13.70;99.90
16172;DHT22;8192;53.596;10.166;2023-07-20T00:48:28;13.70;99.90
16172;DHT22;8192;53.596;10.166;2023-07-20T00:50:57;13.70;99.90
16172;DHT22;8192;53.596;10.166;2023-07-20T00:53:25;13.80;99.90
16172;DHT22;8192;53.596;10.166;2023-07-20T00:55:52;13.80;99.90
16172;DHT22;8192;53.596;10.166;2023-07-20T00:58:19;14.00;99.90
16172;DHT22;8192;53.596;10.166;2023-07-20T01:00:47;14.20;99.90
16172;DHT22;8192;53.596;10.166;2023-07-20T01:03:13;14.20;99.90
16172;DHT22;8192;53.596;10.166;2023-07-20T01:05:45;14.30;99.90
16172;DHT22;8192;53.596;10.166;2023-07-20T01:08:32;14.30;99.90
16172;DHT22;8192;53.596;10.166;2023-07-20T01:11:09;14.30;99.90
16172;DHT22;8192;53.596;10.166;2023-07-20T01:13:37;14.20;99.90
16172;DHT22;8192;53.596;10.166;2023-07-20T01:16:05;14.20;99.90
16172;DHT22;8192;53.596;10.166;2023-07-20T01:18:32;14.10;99.90
16172;DHT22;8192;53.596;10.166;2023-07-20T01:21:03;14.00;99.90
16172;DHT22;8192;53.596;10.166;2023-07-20T01:24:04;14.00;99.90
16172;DHT22;8192;53.596;10.166;2023-07-20T01:26:51;13.90;99.90
16172;DHT22;8192;53.596;10.166;2023-07-20T01:29:30;14.00;99.90
16172;DHT22;8192;53.596;10.166;2023-07-20T01:32:02;13.90;99.90
16172;DHT22;8192;53.596;10.166;2023-07-20T01:34:34;13.90;99.90
16172;DHT22;8192;53.596;10.166;2023-07-20T01:37:02;13.90;99.90
16172;DHT22;8192;53.596;10.166;2023-07-20T01:39:30;13.80;99.90
16172;DHT22;8192;53.596;10.166;2023-07-20T01:41:58;13.90;99.90
16172;DHT22;8192;53.596;10.166;2023-07-20T01:44:25;13.90;99.90
16172;DHT22;8192;53.596;10.166;2023-07-20T01:46:52;13.90;99.90
16172;DHT22;8192;53.596;10.166;2023-07-20T01:49:21;13.80;99.90
16172;DHT22;8192;53.596;10.166;2023-07-20T01:51:48;13.80;99.90
16172;DHT22;8192;53.596;10.166;2023-07-20T01:54:15;13.70;99.90
16172;DHT22;8192;53.596;10.166;2023-07-20T01:56:42;13.70;99.90
16172;DHT22;8192;53.596;10.166;2023-07-20T01:59:10;13.70;99.90
16172;DHT22;8192;53.596;10.166;2023-07-20T02:01:37;13.70;99.90
16172;DHT22;8192;53.596;10.166;2023-07-20T02:04:04;13.60;99.90
16172;DHT22;8192;53.596;10.166;2023-07-20T02:06:32;13.60;99.90
16172;DHT22;8192;53.596;10.166;2023-07-20T02:08:59;13.60;99.90
16172;DHT22;8192;53.596;10.166;2023-07-20T02:11:26;13.70;99.90
16172;DHT22;8192;53.596;10.166;2023-07-20T02:13:53;13.70;99.90
16172;DHT22;8192;53.596;10.166;2023-07-20T02:16:19;13.70;99.90
16172;DHT22;8192;53.596;10.166;2023-07-20T02:18:47;13.70;99.90
16172;DHT22;8192;53.596;10.166;2023-07-20T02:21:14;13.80;99.90
16172;DHT22;8192;53.596;10.166;2023-07-20T02:23:42;13.80;99.90
16172;DHT22;8192;53.596;10.166;2023-07-20T02:26:09;13.70;99.90
16172;DHT22;8192;53.596;10.166;2023-07-20T02:28:36;13.70;99.90
16172;DHT22;8192;53.596;10.166;2023-07-20T02:31:03;13.80;99.90
16172;DHT22;8192;53.596;10.166;2023-07-20T02:33:30;13.70;99.90
16172;DHT22;8192;53.596;10.166;2023-07-20T02:35:57;13.70;99.90
16172;DHT22;8192;53.596;10.166;2023-07-20T02:38:24;13.80;99.90
16172;DHT22;8192;53.596;10.166;2023-07-20T02:40:52;13.80;99.90
16172;DHT22;8192;53.596;10.166;2023-07-20T02:43:19;13.90;99.90
16172;DHT22;8192;53.596;10.166;2023-07-20T02:45:46;13.90;99.90
16172;DHT22;8192;53.596;10.166;2023-07-20T02:48:13;13.80;99.90
16172;DHT22;8192;53.596;10.166;2023-07-20T02:50:40;13.80;99.90
16172;DHT22;8192;53.596;10.166;2023-07-20T02:53:07;13.80;99.90
16172;DHT22;8192;53.596;10.166;2023-07-20T02:55:34;13.70;99.90
16172;DHT22;8192;53.596;10.166;2023-07-20T02:58:02;13.80;99.90
16172;DHT22;8192;53.596;10.166;2023-07-20T03:00:29;13.80;99.90
16172;DHT22;8192;53.596;10.166;2023-07-20T03:02:56;13.80;99.90
16172;DHT22;8192;53.596;10.166;2023-07-20T03:05:23;13.70;99.90
16172;DHT22;8192;53.596;10.166;2023-07-20T03:07:50;13.70;99.90
16172;DHT22;8192;53.596;10.166;2023-07-20T03:10:17;13.70;99.90
16172;DHT22;8192;53.596;10.166;2023-07-20T03:12:44;13.60;99.90
16172;DHT22;8192;53.596;10.166;2023-07-20T03:15:13;13.60;99.90
16172;DHT22;8192;53.596;10.166;2023-07-20T03:17:40;13.60;99.90
16172;DHT22;8192;53.596;10.166;2023-07-20T03:20:08;13.60;99.90
16172;DHT22;8192;53.596;10.166;2023-07-20T03:22:35;13.60;99.90
16172;DHT22;8192;53.596;10.166;2023-07-20T03:25:03;13.50;99.90
16172;DHT22;8192;53.596;10.166;2023-07-20T03:27:31;13.60;99.90
16172;DHT22;8192;53.596;10.166;2023-07-20T03:29:57;13.70;99.90
16172;DHT22;8192;53.596;10.166;2023-07-20T03:32:26;13.70;99.90
16172;DHT22;8192;53.596;10.166;2023-07-20T03:34:53;13.70;99.90
16172;DHT22;8192;53.596;10.166;2023-07-20T03:37:20;13.70;99.90
16172;DHT22;8192;53.596;10.166;2023-07-20T03:39:47;13.70;99.90
16172;DHT22;8192;53.596;10.166;2023-07-20T03:42:14;13.70;99.90
16172;DHT22;8192;53.596;10.166;2023-07-20T03:44:41;13.70;99.90
16172;DHT22;8192;53.596;10.166;2023-07-20T03:47:08;13.80;99.90
16172;DHT22;8192;53.596;10.166;2023-07-20T03:49:37;13.90;99.90
16172;DHT22;8192;53.596;10.166;2023-07-20T03:52:04;13.80;99.90
16172;DHT22;8192;53.596;10.166;2023-07-20T03:54:31;13.90;99.90
16172;DHT22;8192;53.596;10.166;2023-07-20T03:56:58;13.90;99.90
16172;DHT22;8192;53.596;10.166;2023-07-20T03:59:26;13.90;99.90
16172;DHT22;8192;53.596;10.166;2023-07-20T04:01:53;13.90;99.90
16172;DHT22;8192;53.596;10.166;2023-07-20T04:04:20;13.90;99.90
16172;DHT22;8192;53.596;10.166;2023-07-20T04:06:49;13.90;99.90
16172;DHT22;8192;53.596;10.166;2023-07-20T04:09:15;13.90;99.90
16172;DHT22;8192;53.596;10.166;2023-07-20T04:11:42;14.00;99.90
16172;DHT22;8192;53.596;10.166;2023-07-20T04:14:09;14.00;99.90
16172;DHT22;8192;53.596;10.166;2023-07-20T04:16:37;14.00;99.90
16172;DHT22;8192;53.596;10.166;2023-07-20T04:19:04;14.00;99.90
16172;DHT22;8192;53.596;10.166;2023-07-20T04:21:31;14.10;99.90
16172;DHT22;8192;53.596;10.166;2023-07-20T04:23:59;14.10;99.90
16172;DHT22;8192;53.596;10.166;2023-07-20T04:26:26;14.10;99.90
16172;DHT22;8192;53.596;10.166;2023-07-20T04:28:53;14.10;99.90
16172;DHT22;8192;53.596;10.166;2023-07-20T04:31:20;14.10;99.90
16172;DHT22;8192;53.596;10.166;2023-07-20T04:33:47;14.10;99.90
16172;DHT22;8192;53.596;10.166;2023-07-20T04:36:14;14.00;99.90
16172;DHT22;8192;53.596;10.166;2023-07-20T04:38:44;14.00;99.90
16172;DHT22;8192;53.596;10.166;2023-07-20T04:41:14;14.10;99.90
16172;DHT22;8192;53.596;10.166;2023-07-20T04:43:41;14.30;99.90
16172;DHT22;8192;53.596;10.166;2023-07-20T04:46:08;14.50;99.90
16172;DHT22;8192;53.596;10.166;2023-07-20T04:48:37;14.70;99.90
16172;DHT22;8192;53.596;10.166;2023-07-20T04:51:08;15.30;99.90
16172;DHT22;8192;53.596;10.166;2023-07-20T04:53:35;15.80;99.90
16172;DHT22;8192;53.596;10.166;2023-07-20T04:56:02;16.30;99.90
16172;DHT22;8192;53.596;10.166;2023-07-20T04:58:31;16.40;99.90
16172;DHT22;8192;53.596;10.166;2023-07-20T05:00:58;16.30;99.90
16172;DHT22;8192;53.596;10.166;2023-07-20T05:03:25;16.20;99.90
16172;DHT22;8192;53.596;10.166;2023-07-20T05:05:52;16.40;99.80
16172;DHT22;8192;53.596;10.166;2023-07-20T05:08:19;17.20;99.60
16172;DHT22;8192;53.596;10.166;2023-07-20T05:10:47;17.50;97.10
16172;DHT22;8192;53.596;10.166;2023-07-20T05:13:15;17.30;97.00
16172;DHT22;8192;53.596;10.166;2023-07-20T05:15:43;16.80;97.40
16172;DHT22;8192;53.596;10.166;2023-07-20T05:18:10;16.60;98.40
16172;DHT22;8192;53.596;10.166;2023-07-20T05:20:37;16.70;99.60
16172;DHT22;8192;53.596;10.166;2023-07-20T05:23:04;17.80;98.10
16172;DHT22;8192;53.596;10.166;2023-07-20T05:25:31;18.50;95.50
16172;DHT22;8192;53.596;10.166;2023-07-20T05:27:58;18.10;94.70
16172;DHT22;8192;53.596;10.166;2023-07-20T05:30:25;17.90;96.50
16172;DHT22;8192;53.596;10.166;2023-07-20T05:32:56;17.90;95.10
16172;DHT22;8192;53.596;10.166;2023-07-20T05:35:23;17.70;96.10
16172;DHT22;8192;53.596;10.166;2023-07-20T05:37:50;17.30;96.10
16172;DHT22;8192;53.596;10.166;2023-07-20T05:40:17;17.30;96.80
16172;DHT22;8192;53.596;10.166;2023-07-20T05:42:45;18.20;96.00
16172;DHT22;8192;53.596;10.166;2023-07-20T05:45:13;18.90;93.40
16172;DHT22;8192;53.596;10.166;2023-07-20T05:47:41;19.40;93.90
16172;DHT22;8192;53.596;10.166;2023-07-20T05:50:10;19.90;91.90
16172;DHT22;8192;53.596;10.166;2023-07-20T05:52:37;19.90;89.50
16172;DHT22;8192;53.596;10.166;2023-07-20T05:55:06;20.50;88.80
16172;DHT22;8192;53.596;10.166;2023-07-20T05:57:34;20.80;88.50
16172;DHT22;8192;53.596;10.166;2023-07-20T06:00:02;21.10;87.80
16172;DHT22;8192;53.596;10.166;2023-07-20T06:02:29;21.00;82.90
16172;DHT22;8192;53.596;10.166;2023-07-20T06:04:58;21.00;85.00
16172;DHT22;8192;53.596;10.166;2023-07-20T06:07:26;21.60;84.30
16172;DHT22;8192;53.596;10.166;2023-07-20T06:09:56;21.60;83.40
16172;DHT22;8192;53.596;10.166;2023-07-20T06:12:23;21.80;79.70
16172;DHT22;8192;53.596;10.166;2023-07-20T06:14:50;21.70;82.10
16172;DHT22;8192;53.596;10.166;2023-07-20T06:17:18;22.20;83.00
16172;DHT22;8192;53.596;10.166;2023-07-20T06:19:45;22.70;77.90
16172;DHT22;8192;53.596;10.166;2023-07-20T06:22:12;22.60;75.00
16172;DHT22;8192;53.596;10.166;2023-07-20T06:24:43;21.90;77.30
16172;DHT22;8192;53.596;10.166;2023-07-20T06:27:10;21.90;77.70
16172;DHT22;8192;53.596;10.166;2023-07-20T06:29:38;22.10;78.70
16172;DHT22;8192;53.596;10.166;2023-07-20T06:32:06;22.80;76.60
16172;DHT22;8192;53.596;10.166;2023-07-20T06:34:33;22.50;74.50
16172;DHT22;8192;53.596;10.166;2023-07-20T06:37:04;21.40;79.10
16172;DHT22;8192;53.596;10.166;2023-07-20T06:39:31;20.60;82.90
16172;DHT22;8192;53.596;10.166;2023-07-20T06:41:59;19.90;87.10
16172;DHT22;8192;53.596;10.166;2023-07-20T06:44:26;20.10;86.40
16172;DHT22;8192;53.596;10.166;2023-07-20T06:46:53;21.10;87.10
16172;DHT22;8192;53.596;10.166;2023-07-20T06:49:28;22.30;76.30
16172;DHT22;8192;53.596;10.166;2023-07-20T06:51:55;22.80;72.70
16172;DHT22;8192;53.596;10.166;2023-07-20T06:54:22;22.20;69.70
16172;DHT22;8192;53.596;10.166;2023-07-20T06:56:51;23.00;70.00
16172;DHT22;8192;53.596;10.166;2023-07-20T06:59:20;22.20;68.90
16172;DHT22;8192;53.596;10.166;2023-07-20T07:01:47;21.20;75.20
16172;DHT22;8192;53.596;10.166;2023-07-20T07:04:15;20.60;79.90
16172;DHT22;8192;53.596;10.166;2023-07-20T07:06:43;19.70;81.50
16172;DHT22;8192;53.596;10.166;2023-07-20T07:09:17;19.40;84.20
16172;DHT22;8192;53.596;10.166;2023-07-20T07:11:44;20.00;81.50
16172;DHT22;8192;53.596;10.166;2023-07-20T07:14:12;21.50;78.80
16172;DHT22;8192;53.596;10.166;2023-07-20T07:16:40;22.00;70.30
16172;DHT22;8192;53.596;10.166;2023-07-20T07:19:09;22.50;71.80
16172;DHT22;8192;53.596;10.166;2023-07-20T07:21:36;23.60;65.20
16172;DHT22;8192;53.596;10.166;2023-07-20T07:24:05;23.00;63.00
16172;DHT22;8192;53.596;10.166;2023-07-20T07:26:33;23.20;65.60
16172;DHT22;8192;53.596;10.166;2023-07-20T07:29:00;23.00;64.10
16172;DHT22;8192;53.596;10.166;2023-07-20T07:31:29;22.00;65.60
16172;DHT22;8192;53.596;10.166;2023-07-20T07:33:57;21.00;72.40
16172;DHT22;8192;53.596;10.166;2023-07-20T07:36:25;20.20;76.00
16172;DHT22;8192;53.596;10.166;2023-07-20T07:38:58;19.10;80.20
16172;DHT22;8192;53.596;10.166;2023-07-20T07:41:25;18.70;82.90
16172;DHT22;8192;53.596;10.166;2023-07-20T07:43:53;18.90;86.00
16172;DHT22;8192;53.596;10.166;2023-07-20T07:46:21;20.10;79.70
16172;DHT22;8192;53.596;10.166;2023-07-20T07:48:48;20.00;75.00
16172;DHT22;8192;53.596;10.166;2023-07-20T07:51:17;19.40;77.20
16172;DHT22;8192;53.596;10.166;2023-07-20T07:53:45;18.80;80.10
16172;DHT22;8192;53.596;10.166;2023-07-20T07:56:12;18.10;83.50
16172;DHT22;8192;53.596;10.166;2023-07-20T07:58:40;17.50;87.70
16172;DHT22;8192;53.596;10.166;2023-07-20T08:01:07;16.70;91.40
16172;DHT22;8192;53.596;10.166;2023-07-20T08:03:34;16.20;92.30
16172;DHT22;8192;53.596;10.166;2023-07-20T08:06:02;16.20;93.80
16172;DHT22;8192;53.596;10.166;2023-07-20T08:08:32;16.30;93.80
16172;DHT22;8192;53.596;10.166;2023-07-20T08:10:59;17.20;93.00
16172;DHT22;8192;53.596;10.166;2023-07-20T08:13:26;17.60;91.30
16172;DHT22;8192;53.596;10.166;2023-07-20T08:15:53;18.30;90.90
16172;DHT22;8192;53.596;10.166;2023-07-20T08:18:21;19.60;84.80
16172;DHT22;8192;53.596;10.166;2023-07-20T08:20:48;20.80;81.90
16172;DHT22;8192;53.596;10.166;2023-07-20T08:23:16;21.40;76.20
16172;DHT22;8192;53.596;10.166;2023-07-20T08:25:44;21.50;73.00
16172;DHT22;8192;53.596;10.166;2023-07-20T08:28:13;22.10;71.60
16172;DHT22;8192;53.596;10.166;2023-07-20T08:30:41;22.20;69.10
16172;DHT22;8192;53.596;10.166;2023-07-20T08:33:13;22.00;72.40
16172;DHT22;8192;53.596;10.166;2023-07-20T08:35:40;21.20;71.60
16172;DHT22;8192;53.596;10.166;2023-07-20T08:38:07;21.10;75.00
16172;DHT22;8192;53.596;10.166;2023-07-20T08:40:39;21.20;72.50
16172;DHT22;8192;53.596;10.166;2023-07-20T08:43:08;20.90;74.90
16172;DHT22;8192;53.596;10.166;2023-07-20T08:45:36;20.80;73.50
16172;DHT22;8192;53.596;10.166;2023-07-20T08:48:06;20.30;73.10
16172;DHT22;8192;53.596;10.166;2023-07-20T08:50:34;20.20;75.20
16172;DHT22;8192;53.596;10.166;2023-07-20T08:53:02;19.90;74.20
16172;DHT22;8192;53.596;10.166;2023-07-20T08:55:32;19.40;74.00
16172;DHT22;8192;53.596;10.166;2023-07-20T08:58:00;19.20;74.70
16172;DHT22;8192;53.596;10.166;2023-07-20T09:00:29;19.60;76.20
16172;DHT22;8192;53.596;10.166;2023-07-20T09:02:57;20.00;76.10
16172;DHT22;8192;53.596;10.166;2023-07-20T09:05:26;19.80;73.60
16172;DHT22;8192;53.596;10.166;2023-07-20T09:07:54;19.80;74.20
16172;DHT22;8192;53.596;10.166;2023-07-20T09:10:21;19.80;74.10
16172;DHT22;8192;53.596;10.166;2023-07-20T09:12:49;19.60;78.90
16172;DHT22;8192;53.596;10.166;2023-07-20T09:15:16;19.00;78.20
16172;DHT22;8192;53.596;10.166;2023-07-20T09:17:47;18.90;79.30
16172;DHT22;8192;53.596;10.166;2023-07-20T09:20:17;19.10;80.60
16172;DHT22;8192;53.596;10.166;2023-07-20T09:22:45;19.20;79.70
16172;DHT22;8192;53.596;10.166;2023-07-20T09:25:13;19.10;80.10
16172;DHT22;8192;53.596;10.166;2023-07-20T09:27:41;19.00;78.70
16172;DHT22;8192;53.596;10.166;2023-07-20T09:30:09;19.60;80.80
16172;DHT22;8192;53.596;10.166;2023-07-20T09:32:41;20.10;77.00
16172;DHT22;8192;53.596;10.166;2023-07-20T09:35:14;20.20;77.20
16172;DHT22;8192;53.596;10.166;2023-07-20T09:37:46;20.40;77.20
16172;DHT22;8192;53.596;10.166;2023-07-20T09:40:17;19.50;81.60
16172;DHT22;8192;53.596;10.166;2023-07-20T09:42:45;18.30;89.20
16172;DHT22;8192;53.596;10.166;2023-07-20T09:45:15;17.20;90.70
16172;DHT22;8192;53.596;10.166;2023-07-20T09:47:42;16.60;94.00
16172;DHT22;8192;53.596;10.166;2023-07-20T09:50:09;16.50;94.30
16172;DHT22;8192;53.596;10.166;2023-07-20T09:52:41;16.50;94.60
16172;DHT22;8192;53.596;10.166;2023-07-20T09:55:10;16.60;95.90
16172;DHT22;8192;53.596;10.166;2023-07-20T09:57:39;16.70;93.80
16172;DHT22;8192;53.596;10.166;2023-07-20T10:00:07;16.90;94.30
16172;DHT22;8192;53.596;10.166;2023-07-20T10:02:41;16.90;93.10
16172;DHT22;8192;53.596;10.166;2023-07-20T10:05:16;17.00;92.70
16172;DHT22;8192;53.596;10.166;2023-07-20T10:07:48;17.10;92.40
16172;DHT22;8192;53.596;10.166;2023-07-20T10:10:16;17.30;92.60
16172;DHT22;8192;53.596;10.166;2023-07-20T10:12:46;17.50;93.80
16172;DHT22;8192;53.596;10.166;2023-07-20T10:15:20;17.80;91.10
16172;DHT22;8192;53.596;10.166;2023-07-20T10:17:57;17.90;90.70
16172;DHT22;8192;53.596;10.166;2023-07-20T10:20:27;18.00;88.70
16172;DHT22;8192;53.596;10.166;2023-07-20T10:22:56;18.20;90.70
16172;DHT22;8192;53.596;10.166;2023-07-20T10:25:23;18.60;90.00
16172;DHT22;8192;53.596;10.166;2023-07-20T10:27:51;19.00;86.30
16172;DHT22;8192;53.596;10.166;2023-07-20T10:30:18;19.60;86.40
16172;DHT22;8192;53.596;10.166;2023-07-20T10:32:47;20.00;83.70
16172;DHT22;8192;53.596;10.166;2023-07-20T10:35:15;20.40;81.70
16172;DHT22;8192;53.596;10.166;2023-07-20T10:37:52;20.30;78.50
16172;DHT22;8192;53.596;10.166;2023-07-20T10:40:31;19.90;79.10
16172;DHT22;8192;53.596;10.166;2023-07-20T10:43:00;19.50;79.90
16172;DHT22;8192;53.596;10.166;2023-07-20T10:45:48;19.40;79.80
16172;DHT22;8192;53.596;10.166;2023-07-20T10:48:16;19.10;79.80
16172;DHT22;8192;53.596;10.166;2023-07-20T10:50:45;18.60;84.70
16172;DHT22;8192;53.596;10.166;2023-07-20T10:53:14;17.60;92.30
16172;DHT22;8192;53.596;10.166;2023-07-20T10:55:43;17.10;94.10
16172;DHT22;8192;53.596;10.166;2023-07-20T10:58:13;16.80;95.10
16172;DHT22;8192;53.596;10.166;2023-07-20T11:01:01;16.70;97.50
16172;DHT22;8192;53.596;10.166;2023-07-20T11:03:32;17.00;96.80
16172;DHT22;8192;53.596;10.166;2023-07-20T11:06:00;17.20;96.10
16172;DHT22;8192;53.596;10.166;2023-07-20T11:08:47;17.20;96.10
16172;DHT22;8192;53.596;10.166;2023-07-20T11:11:26;17.40;95.50
16172;DHT22;8192;53.596;10.166;2023-07-20T11:13:57;17.90;96.60
16172;DHT22;8192;53.596;10.166;2023-07-20T11:16:39;18.30;93.20
16172;DHT22;8192;53.596;10.166;2023-07-20T11:19:14;18.20;93.10
16172;DHT22;8192;53.596;10.166;2023-07-20T11:21:45;18.00;94.10
16172;DHT22;8192;53.596;10.166;2023-07-20T11:24:12;17.50;96.20
16172;DHT22;8192;53.596;10.166;2023-07-20T11:26:43;17.30;96.10
16172;DHT22;8192;53.596;10.166;2023-07-20T11:29:10;17.00;95.90
16172;DHT22;8192;53.596;10.166;2023-07-20T11:31:38;16.90;97.40
16172;DHT22;8192;53.596;10.166;2023-07-20T11:34:05;16.70;96.50
16172;DHT22;8192;53.596;10.166;2023-07-20T11:36:33;16.50;97.00
16172;DHT22;8192;53.596;10.166;2023-07-20T11:39:01;16.60;97.30
16172;DHT22;8192;53.596;10.166;2023-07-20T11:41:31;16.90;97.00
16172;DHT22;8192;53.596;10.166;2023-07-20T11:44:00;17.10;95.90
16172;DHT22;8192;53.596;10.166;2023-07-20T11:46:28;17.10;95.60
16172;DHT22;8192;53.596;10.166;2023-07-20T11:48:58;17.10;97.00
16172;DHT22;8192;53.596;10.166;2023-07-20T11:51:27;17.20;96.30
16172;DHT22;8192;53.596;10.166;2023-07-20T11:53:54;17.20;95.50
16172;DHT22;8192;53.596;10.166;2023-07-20T11:56:23;17.50;96.40
16172;DHT22;8192;53.596;10.166;2023-07-20T11:58:55;17.70;94.60
16172;DHT22;8192;53.596;10.166;2023-07-20T12:01:28;18.10;92.20
16172;DHT22;8192;53.596;10.166;2023-07-20T12:03:57;18.30;92.30
16172;DHT22;8192;53.596;10.166;2023-07-20T12:06:24;18.70;89.70
16172;DHT22;8192;53.596;10.166;2023-07-20T12:08:55;18.90;88.30
16172;DHT22;8192;53.596;10.166;2023-07-20T12:11:33;18.50;87.00
16172;DHT22;8192;53.596;10.166;2023-07-20T12:14:01;18.00;88.40
16172;DHT22;8192;53.596;10.166;2023-07-20T12:16:30;17.50;90.20
16172;DHT22;8192;53.596;10.166;2023-07-20T12:19:01;17.30;91.50
16172;DHT22;8192;53.596;10.166;2023-07-20T12:21:29;17.30;91.60
16172;DHT22;8192;53.596;10.166;2023-07-20T12:23:56;16.90;92.80
16172;DHT22;8192;53.596;10.166;2023-07-20T12:26:24;16.70;92.50
16172;DHT22;8192;53.596;10.166;2023-07-20T12:28:52;16.40;94.10
16172;DHT22;8192;53.596;10.166;2023-07-20T12:31:20;16.00;95.70
16172;DHT22;8192;53.596;10.166;2023-07-20T12:33:49;15.80;96.50
16172;DHT22;8192;53.596;10.166;2023-07-20T12:36:17;15.80;96.90
16172;DHT22;8192;53.596;10.166;2023-07-20T12:38:45;15.80;97.10
16172;DHT22;8192;53.596;10.166;2023-07-20T12:41:13;15.90;98.10
16172;DHT22;8192;53.596;10.166;2023-07-20T12:43:40;16.10;98.20
16172;DHT22;8192;53.596;10.166;2023-07-20T12:46:07;16.20;97.30
16172;DHT22;8192;53.596;10.166;2023-07-20T12:48:36;16.30;97.40
16172;DHT22;8192;53.596;10.166;2023-07-20T12:51:05;16.60;96.60
16172;DHT22;8192;53.596;10.166;2023-07-20T12:53:32;16.90;96.70
16172;DHT22;8192;53.596;10.166;2023-07-20T12:55:59;17.20;96.30
16172;DHT22;8192;53.596;10.166;2023-07-20T12:58:26;17.40;95.40
16172;DHT22;8192;53.596;10.166;2023-07-20T13:00:54;17.40;95.10
16172;DHT22;8192;53.596;10.166;2023-07-20T13:03:21;17.30;95.30
16172;DHT22;8192;53.596;10.166;2023-07-20T13:05:48;17.30;95.90
16172;DHT22;8192;53.596;10.166;2023-07-20T13:08:17;17.30;94.10
16172;DHT22;8192;53.596;10.166;2023-07-20T13:10:45;17.30;94.70
16172;DHT22;8192;53.596;10.166;2023-07-20T13:13:12;17.60;93.70
16172;DHT22;8192;53.596;10.166;2023-07-20T13:15:44;18.00;93.70
16172;DHT22;8192;53.596;10.166;2023-07-20T13:18:11;18.20;91.20
16172;DHT22;8192;53.596;10.166;2023-07-20T13:20:39;18.60;91.40
16172;DHT22;8192;53.596;10.166;2023-07-20T13:23:06;19.10;91.30
16172;DHT22;8192;53.596;10.166;2023-07-20T13:25:34;19.50;90.60
16172;DHT22;8192;53.596;10.166;2023-07-20T13:28:01;19.80;88.30
16172;DHT22;8192;53.596;10.166;2023-07-20T13:30:28;20.00;85.20
16172;DHT22;8192;53.596;10.166;2023-07-20T13:32:55;20.20;84.50
16172;DHT22;8192;53.596;10.166;2023-07-20T13:35:22;19.90;81.80
16172;DHT22;8192;53.596;10.166;2023-07-20T13:37:49;19.90;83.40
16172;DHT22;8192;53.596;10.166;2023-07-20T13:40:16;20.00;82.20
16172;DHT22;8192;53.596;10.166;2023-07-20T13:42:46;19.90;80.00
16172;DHT22;8192;53.596;10.166;2023-07-20T13:45:13;19.30;81.90
16172;DHT22;8192;53.596;10.166;2023-07-20T13:47:40;19.00;85.50
16172;DHT22;8192;53.596;10.166;2023-07-20T13:50:07;19.30;87.00
16172;DHT22;8192;53.596;10.166;2023-07-20T13:52:34;19.70;84.70
16172;DHT22;8192;53.596;10.166;2023-07-20T13:55:02;19.70;85.60
16172;DHT22;8192;53.596;10.166;2023-07-20T13:57:30;20.10;82.40
16172;DHT22;8192;53.596;10.166;2023-07-20T13:59:58;20.10;83.20
16172;DHT22;8192;53.596;10.166;2023-07-20T14:02:26;20.80;81.90
16172;DHT22;8192;53.596;10.166;2023-07-20T14:04:53;21.60;74.40
16172;DHT22;8192;53.596;10.166;2023-07-20T14:07:21;21.10;75.00
16172;DHT22;8192;53.596;10.166;2023-07-20T14:09:48;20.40;78.60
16172;DHT22;8192;53.596;10.166;2023-07-20T14:12:16;20.60;79.00
16172;DHT22;8192;53.596;10.166;2023-07-20T14:14:43;21.20;77.50
16172;DHT22;8192;53.596;10.166;2023-07-20T14:17:12;22.20;74.10
16172;DHT22;8192;53.596;10.166;2023-07-20T14:19:39;22.70;70.20
16172;DHT22;8192;53.596;10.166;2023-07-20T14:22:06;22.80;65.50
16172;DHT22;8192;53.596;10.166;2023-07-20T14:24:33;22.60;60.90
16172;DHT22;8192;53.596;10.166;2023-07-20T14:27:00;21.70;63.80
16172;DHT22;8192;53.596;10.166;2023-07-20T14:29:28;21.40;65.10
16172;DHT22;8192;53.596;10.166;2023-07-20T14:31:57;21.00;66.60
16172;DHT22;8192;53.596;10.166;2023-07-20T14:34:25;21.30;67.90
16172;DHT22;8192;53.596;10.166;2023-07-20T14:36:53;20.80;64.00
16172;DHT22;8192;53.596;10.166;2023-07-20T14:39:20;20.20;67.10
16172;DHT22;8192;53.596;10.166;2023-07-20T14:41:48;20.00;69.50
16172;DHT22;8192;53.596;10.166;2023-07-20T14:44:16;20.90;69.70
16172;DHT22;8192;53.596;10.166;2023-07-20T14:46:43;21.50;65.20
16172;DHT22;8192;53.596;10.166;2023-07-20T14:49:10;22.00;63.60
16172;DHT22;8192;53.596;10.166;2023-07-20T14:51:39;22.70;61.20
16172;DHT22;8192;53.596;10.166;2023-07-20T14:54:12;23.30;57.80
16172;DHT22;8192;53.596;10.166;2023-07-20T14:56:39;23.10;58.20
16172;DHT22;8192;53.596;10.166;2023-07-20T14:59:15;22.60;58.70
16172;DHT22;8192;53.596;10.166;2023-07-20T15:01:43;23.10;58.70
16172;DHT22;8192;53.596;10.166;2023-07-20T15:04:11;23.30;58.00
16172;DHT22;8192;53.596;10.166;2023-07-20T15:06:39;23.80;57.30
16172;DHT22;8192;53.596;10.166;2023-07-20T15:09:07;23.90;52.70
16172;DHT22;8192;53.596;10.166;2023-07-20T15:11:35;23.70;54.00
16172;DHT22;8192;53.596;10.166;2023-07-20T15:14:02;23.50;54.00
16172;DHT22;8192;53.596;10.166;2023-07-20T15:16:29;23.20;51.70
16172;DHT22;8192;53.596;10.166;2023-07-20T15:18:56;23.00;54.00
16172;DHT22;8192;53.596;10.166;2023-07-20T15:21:23;23.00;54.60
16172;DHT22;8192;53.596;10.166;2023-07-20T15:23:52;22.20;54.30
16172;DHT22;8192;53.596;10.166;2023-07-20T15:26:20;21.40;57.90
16172;DHT22;8192;53.596;10.166;2023-07-20T15:28:48;21.30;60.80
16172;DHT22;8192;53.596;10.166;2023-07-20T15:31:15;21.20;60.20
16172;DHT22;8192;53.596;10.166;2023-07-20T15:33:42;21.20;59.40
16172;DHT22;8192;53.596;10.166;2023-07-20T15:36:09;21.70;59.20
16172;DHT22;8192;53.596;10.166;2023-07-20T15:38:36;21.90;57.80